Time;durP1;ratioP1;P1;durP2;ratioP2;P2;SDS_P1;SDS_P2;PMS_P1;PMS_P2;Temp;Humidity;BMP_temperature;BMP_pressure;BME280_temperature;BME280_humidity;BME280_pressure;Samples;Min_cycle;Max_cycle;Signal;HPM_P1;HPM_P2
2022/06/14 00:01:58;;;;;;;4.87;4.37;;;;;;;24.41;52.52;100424.56;1723147;83;21051;-87
2022/06/14 00:04:25;;;;;;;4.75;4.20;;;;;;;24.42;52.53;100423.98;1722755;83;20984;-87
2022/06/14 00:06:51;;;;;;;4.37;3.98;;;;;;;24.42;52.52;100423.41;1722933;81;21055;-86
2022/06/14 00:09:24;;;;;;;4.60;4.20;;;;;;;24.41;52.50;100415.41;1722632;83;20967;-86
2022/06/14 00:11:50;;;;;;;4.90;4.03;;;;;;;24.41;52.54;100413.44;1722441;83;21326;-87
2022/06/14 00:14:19;;;;;;;5.62;4.30;;;;;;;24.41;52.50;100417.61;1722602;81;21043;-87
2022/06/14 00:16:45;;;;;;;4.60;4.20;;;;;;;24.41;52.54;100421.78;1722961;81;21059;-87
2022/06/14 00:19:11;;;;;;;4.97;3.83;;;;;;;24.41;52.52;100416.22;1722527;83;21011;-87
2022/06/14 00:21:38;;;;;;;5.10;4.47;;;;;;;24.40;52.54;100407.64;1723083;83;21059;-86
2022/06/14 00:24:05;;;;;;;4.53;4.12;;;;;;;24.41;52.52;100407.88;1723069;82;21475;-87
2022/06/14 00:26:32;;;;;;;4.55;4.15;;;;;;;24.41;52.53;100400.93;1722613;83;21026;-87
2022/06/14 00:28:58;;;;;;;4.70;4.30;;;;;;;24.41;52.52;100406.49;1722880;83;21071;-87
2022/06/14 00:31:25;;;;;;;4.67;4.12;;;;;;;24.41;52.55;100405.10;1723013;83;21015;-87
2022/06/14 00:33:52;;;;;;;6.47;4.22;;;;;;;24.41;52.54;100396.76;1722709;81;21054;-87
2022/06/14 00:36:29;;;;;;;4.22;3.83;;;;;;;24.41;52.55;100392.59;1723057;83;21154;-86
2022/06/14 00:39:01;;;;;;;4.50;4.10;;;;;;;24.40;52.55;100393.74;1722279;81;21102;-86
2022/06/14 00:41:39;;;;;;;5.42;4.20;;;;;;;24.41;52.53;100391.78;1723557;83;21075;-87
2022/06/14 00:44:09;;;;;;;5.05;4.10;;;;;;;24.41;52.53;100396.76;1723343;83;20976;-86
2022/06/14 00:46:41;;;;;;;4.58;4.17;;;;;;;24.40;52.54;100393.74;1719441;81;21052;-86
2022/06/14 00:49:22;;;;;;;4.55;3.95;;;;;;;24.40;52.54;100395.74;1721762;81;21203;-87
2022/06/14 00:51:57;;;;;;;;;;;;;;;24.41;52.53;100393.98;1726026;83;21080;-87
2022/06/14 00:54:27;;;;;;;4.92;4.20;;;;;;;24.39;52.55;100394.11;1723204;81;20150;-86
2022/06/14 00:57:04;;;;;;;5.72;4.35;;;;;;;24.38;52.55;100393.88;1703065;83;21570;-86
2022/06/14 00:59:42;;;;;;;4.70;4.20;;;;;;;24.38;52.55;100388.32;1722666;82;21001;-86
2022/06/14 01:02:25;;;;;;;5.08;4.47;;;;;;;24.38;52.55;100391.09;1723181;83;21191;-87
2022/06/14 01:04:51;;;;;;;4.50;4.10;;;;;;;24.38;52.56;100393.88;1702232;83;21023;-87
2022/06/14 01:07:25;;;;;;;4.22;3.83;;;;;;;24.37;52.58;100390.29;1723245;81;21102;-87
2022/06/14 01:09:55;;;;;;;5.10;4.20;;;;;;;24.38;52.57;100389.70;1723155;83;21056;-87
2022/06/14 01:12:24;;;;;;;4.47;4.05;;;;;;;24.37;52.58;100392.26;1722597;81;21003;-87
2022/06/14 01:15:19;;;;;;;4.40;4.00;;;;;;;24.37;52.59;100387.51;1722895;82;21397;-87
2022/06/14 01:17:57;;;;;;;4.67;4.15;;;;;;;24.36;52.60;100386.46;1722760;83;21059;-87
2022/06/14 01:20:24;;;;;;;4.58;4.15;;;;;;;24.37;52.61;100388.08;1703852;83;21048;-87
2022/06/14 01:22:50;;;;;;;4.47;4.05;;;;;;;24.36;52.60;100384.49;1722755;83;21075;-87
2022/06/14 01:25:17;;;;;;;5.55;4.28;;;;;;;24.36;52.63;100381.71;1720724;82;21116;-87
2022/06/14 01:27:43;;;;;;;5.12;4.40;;;;;;;24.36;52.63;100384.49;1719695;83;21841;-87
2022/06/14 01:30:18;;;;;;;5.65;4.37;;;;;;;24.36;52.63;100378.12;1719623;82;21117;-87
2022/06/14 01:32:51;;;;;;;4.95;3.98;;;;;;;24.37;52.62;100383.91;1719466;82;21045;-87
2022/06/14 01:35:21;;;;;;;5.10;4.58;;;;;;;24.37;52.64;100377.77;1719470;82;21061;-87
2022/06/14 01:37:50;;;;;;;4.40;3.67;;;;;;;24.37;52.64;100376.96;1701756;83;21148;-87
2022/06/14 01:40:17;;;;;;;5.15;4.37;;;;;;;24.37;52.65;100382.52;1719586;82;21116;-87
2022/06/14 01:42:48;;;;;;;4.35;3.95;;;;;;;24.36;52.65;100383.10;1719583;82;21109;-87
2022/06/14 01:45:37;;;;;;;4.60;4.05;;;;;;;24.36;52.64;100376.16;1719742;83;21049;-87
2022/06/14 01:48:12;;;;;;;5.22;3.92;;;;;;;24.36;52.65;100380.32;1719596;83;21314;-87
2022/06/14 01:53:58;;;;;;;4.83;4.30;;;;;;;24.36;52.63;100376.73;1719786;82;21932;-86
2022/06/14 01:56:47;;;;;;;4.35;3.95;;;;;;;24.36;52.65;100368.39;1717032;82;21023;-87
2022/06/14 01:59:31;;;;;;;4.70;4.30;;;;;;;24.35;52.64;100366.80;1720043;82;21085;-87
2022/06/14 02:02:12;;;;;;;5.12;4.62;;;;;;;24.35;52.64;100368.19;1720035;82;21109;-87
2022/06/14 02:04:56;;;;;;;4.97;4.40;;;;;;;24.34;52.65;100372.12;1707498;82;21057;-87
2022/06/14 02:07:38;;;;;;;5.42;4.70;;;;;;;24.34;52.69;100372.93;1719006;82;21579;-87
2022/06/14 02:10:40;;;;;;;4.62;4.12;;;;;;;24.34;52.65;100374.90;1719699;83;20955;-87
2022/06/14 02:13:27;;;;;;;5.37;4.75;;;;;;;24.33;52.70;100381.61;1719434;82;21114;-87
2022/06/14 02:16:09;;;;;;;5.03;4.53;;;;;;;24.34;52.70;100386.83;1719559;82;21073;-86
2022/06/14 02:18:58;;;;;;;4.92;4.42;;;;;;;24.34;52.70;100384.62;1720031;82;21045;-87
2022/06/14 02:21:40;;;;;;;5.00;4.08;;;;;;;24.33;52.72;100388.56;1719638;83;21058;-86
2022/06/14 02:24:17;;;;;;;4.90;4.40;;;;;;;24.32;52.72;100389.14;1720461;81;21128;-86
2022/06/14 02:26:51;;;;;;;5.08;4.58;;;;;;;24.33;52.74;100389.95;1722452;82;21504;-87
2022/06/14 02:29:25;;;;;;;5.55;4.22;;;;;;;24.32;52.77;100386.36;1685105;81;21564;-87
2022/06/14 02:31:59;;;;;;;4.62;4.17;;;;;;;24.33;52.77;100392.16;1721077;81;21061;-87
2022/06/14 02:34:37;;;;;;;5.22;4.40;;;;;;;24.32;52.79;100393.31;1722597;83;21551;-87
2022/06/14 02:37:17;;;;;;;4.83;4.30;;;;;;;24.33;52.79;100394.13;1727385;81;21021;-86
2022/06/14 02:40:01;;;;;;;6.05;4.40;;;;;;;24.31;52.80;100388.94;1711614;83;21101;-87
2022/06/14 02:42:38;;;;;;;4.83;4.40;;;;;;;24.32;52.80;100390.53;1726042;83;21246;-87
2022/06/14 02:45:24;;;;;;;5.08;4.55;;;;;;;24.32;52.81;100398.88;1727840;81;21061;-87
2022/06/14 02:48:01;;;;;;;6.45;4.40;;;;;;;24.32;52.80;100396.09;1722397;83;21054;-86
2022/06/14 02:50:45;;;;;;;6.67;4.87;;;;;;;24.32;52.81;100391.92;1697785;83;21006;-87
2022/06/14 02:53:20;;;;;;;5.78;5.10;;;;;;;24.31;52.87;100402.84;1711259;82;21102;-87
2022/06/14 02:56:04;;;;;;;6.95;6.25;;;;;;;24.30;52.94;100396.23;1727922;81;21112;-86
2022/06/14 02:58:35;;;;;;;8.25;5.70;;;;;;;24.27;53.02;100401.92;1712349;82;21089;-86
2022/06/14 03:01:06;;;;;;;9.25;6.50;;;;;;;24.25;53.07;100405.63;1727949;83;21058;-87
2022/06/14 03:03:40;;;;;;;10.70;6.83;;;;;;;24.24;53.18;100410.13;1712315;83;21050;-87
2022/06/14 03:06:16;;;;;;;8.78;6.62;;;;;;;24.21;53.27;100413.63;1727422;81;21030;-86
2022/06/14 03:09:14;;;;;;;8.13;7.05;;;;;;;24.19;53.34;100420.91;1712012;82;21097;-86
2022/06/14 03:11:49;;;;;;;7.00;6.12;;;;;;;24.17;53.41;100426.03;1727698;81;21710;-87
2022/06/14 03:14:51;;;;;;;8.58;6.08;;;;;;;24.15;53.46;100426.95;1712417;82;21966;-86
2022/06/14 03:17:27;;;;;;;9.13;6.50;;;;;;;24.12;53.54;100427.05;1727836;82;21530;-87
2022/06/14 03:20:28;;;;;;;16.73;7.30;;;;;;;24.10;53.62;100424.41;1722492;83;21499;-87
2022/06/14 03:23:33;;;;;;;11.25;6.65;;;;;;;24.08;53.70;100430.30;1726773;81;21120;-87
2022/06/14 03:26:23;;;;;;;10.65;6.75;;;;;;;24.06;53.76;100435.39;1720491;82;21038;-87
2022/06/14 03:29:00;;;;;;;16.10;6.70;;;;;;;24.00;53.85;100430.43;1710248;83;21472;-86
2022/06/14 03:31:47;;;;;;;13.40;7.08;;;;;;;23.97;53.95;100431.14;1718698;82;21583;-86
2022/06/14 03:34:27;;;;;;;12.68;6.97;;;;;;;23.95;54.00;100427.88;1710045;82;21656;-87
2022/06/14 03:36:54;;;;;;;;;;;;;;;23.93;54.05;100433.78;1722561;82;21045;-86
2022/06/14 03:39:24;;;;;;;10.85;7.15;;;;;;;23.91;54.15;100435.30;1720045;83;20695;-86
2022/06/14 03:41:52;;;;;;;11.50;8.50;;;;;;;23.87;54.18;100435.77;1720013;82;21524;-86
2022/06/14 03:44:20;;;;;;;10.38;8.08;;;;;;;23.82;54.28;100435.42;1719274;81;21041;-87
2022/06/14 03:47:12;;;;;;;11.65;7.90;;;;;;;23.80;54.45;100440.53;1727848;80;21050;-87
2022/06/14 03:49:42;;;;;;;9.50;8.03;;;;;;;23.79;54.53;100443.07;1728583;81;21098;-86
2022/06/14 03:52:16;;;;;;;11.03;7.20;;;;;;;23.80;54.58;100441.11;1736063;80;21045;-86
2022/06/14 03:55:13;;;;;;;9.65;7.97;;;;;;;23.82;54.60;100447.11;1720268;81;21926;-87
2022/06/14 03:58:12;;;;;;;10.98;7.42;;;;;;;23.81;54.63;100449.08;1733039;81;21061;-86
2022/06/14 04:00:55;;;;;;;8.70;7.80;;;;;;;23.76;54.65;100446.55;1724794;81;21040;-87
2022/06/14 04:03:58;;;;;;;10.20;7.30;;;;;;;23.69;54.79;100443.52;1712521;81;21121;-87
2022/06/14 04:06:36;;;;;;;12.73;8.18;;;;;;;23.66;54.91;100442.84;1729384;80;21606;-87
2022/06/14 04:09:17;;;;;;;11.18;8.18;;;;;;;23.67;54.96;100448.62;1715080;82;21743;-87
2022/06/14 04:12:14;;;;;;;14.28;8.88;;;;;;;23.66;55.05;100453.38;1711020;81;21038;-87
2022/06/14 04:15:26;;;;;;;10.78;8.00;;;;;;;23.68;55.09;100453.00;1714476;81;21013;-86
2022/06/14 04:18:36;;;;;;;12.40;8.18;;;;;;;23.66;55.22;100451.98;1687739;82;21061;-86
2022/06/14 04:21:16;;;;;;;16.55;9.30;;;;;;;23.66;55.29;100458.92;1729248;81;21068;-86
2022/06/14 04:24:12;;;;;;;10.08;7.80;;;;;;;23.67;55.38;100462.52;1675057;82;21119;-86
2022/06/14 04:26:49;;;;;;;9.93;7.90;;;;;;;23.68;55.46;100466.11;1657674;84;21717;-88
2022/06/14 04:29:42;;;;;;;13.08;7.90;;;;;;;23.68;55.51;100460.77;1655659;83;21152;-87
2022/06/14 04:32:23;;;;;;;11.57;8.23;;;;;;;23.70;55.57;100466.56;1698120;84;21068;-87
2022/06/14 04:35:17;;;;;;;;;;;;;;;23.71;55.62;100466.22;1682343;83;21057;-87
2022/06/14 04:37:54;;;;;;;9.60;7.22;;;;;;;23.73;55.66;100465.86;1671308;84;21104;-87
2022/06/14 04:40:28;;;;;;;13.00;7.17;;;;;;;23.72;55.58;100467.82;1681930;84;21178;-87
2022/06/14 04:43:04;;;;;;;11.03;7.45;;;;;;;23.74;55.63;100470.26;1710173;81;21087;-87
2022/06/14 04:45:43;;;;;;;12.13;7.53;;;;;;;23.75;55.63;100470.50;1736328;80;21100;-88
2022/06/14 04:48:17;;;;;;;12.60;6.72;;;;;;;23.76;55.67;100470.73;1687723;82;21107;-87
2022/06/14 04:50:48;;;;;;;11.15;7.65;;;;;;;23.78;55.63;100473.97;1749018;80;21823;-85
2022/06/14 04:53:21;;;;;;;9.50;7.10;;;;;;;23.81;55.64;100478.81;1721184;81;21547;-87
2022/06/14 04:56:06;;;;;;;9.90;7.10;;;;;;;23.81;55.59;100485.77;1717194;83;21037;-87
2022/06/14 04:58:53;;;;;;;12.03;7.15;;;;;;;23.85;55.55;100479.77;1721671;81;21665;-87
2022/06/14 05:01:34;;;;;;;8.98;6.95;;;;;;;23.87;55.46;100489.37;1681260;83;21085;-86
2022/06/14 05:04:06;;;;;;;8.85;6.65;;;;;;;23.88;55.39;100485.44;1719467;81;21035;-86
2022/06/14 05:06:50;;;;;;;13.15;7.95;;;;;;;23.91;55.31;100486.12;1664652;84;21622;-87
2022/06/14 05:09:23;;;;;;;12.45;7.08;;;;;;;23.92;55.33;100493.31;1712232;82;21001;-87
2022/06/14 05:12:13;;;;;;;10.82;7.00;;;;;;;23.94;55.30;100488.78;1692872;83;21136;-87
2022/06/14 05:14:56;;;;;;;8.08;6.08;;;;;;;23.96;55.28;100492.03;1732672;80;21749;-87
2022/06/14 05:17:46;;;;;;;9.83;6.92;;;;;;;23.97;55.20;100490.30;1687350;84;21939;-86
2022/06/14 05:20:21;;;;;;;11.90;6.92;;;;;;;23.98;55.23;100486.34;1719338;80;21057;-87
2022/06/14 05:23:02;;;;;;;9.63;6.70;;;;;;;24.00;55.12;100488.78;1675703;83;21512;-87
2022/06/14 05:25:34;;;;;;;9.28;6.20;;;;;;;23.99;55.04;100488.55;1712170;82;22130;-86
2022/06/14 05:28:07;;;;;;;11.18;6.30;;;;;;;23.98;54.99;100494.69;1731104;81;21106;-87
2022/06/14 05:30:54;;;;;;;8.60;6.60;;;;;;;23.99;54.96;100497.70;1724584;81;21554;-87
2022/06/14 05:33:55;;;;;;;7.53;6.33;;;;;;;24.00;54.97;100494.34;1723440;81;21054;-86
2022/06/14 05:36:31;;;;;;;11.70;5.60;;;;;;;24.01;54.98;100495.97;1726121;81;21084;-85
2022/06/14 05:39:03;;;;;;;9.53;6.05;;;;;;;24.04;55.00;100496.66;1735248;81;21056;-86
2022/06/14 05:41:49;;;;;;;8.68;5.75;;;;;;;24.05;55.07;100495.50;1730608;80;21142;-84
2022/06/14 05:44:28;;;;;;;11.53;6.72;;;;;;;24.06;55.12;100497.13;1715139;81;22064;-87
2022/06/14 05:46:55;;;;;;;8.87;6.23;;;;;;;24.09;55.19;100504.77;1729677;81;21082;-86
2022/06/14 05:49:30;;;;;;;9.33;6.08;;;;;;;24.10;55.19;100502.23;1735563;81;21581;-87
2022/06/14 05:52:08;;;;;;;9.78;6.28;;;;;;;24.11;55.21;100499.66;1720994;81;21107;-86
2022/06/14 05:54:55;;;;;;;9.50;5.75;;;;;;;24.11;55.22;100499.66;1733937;81;21098;-88
2022/06/14 05:57:29;;;;;;;12.47;6.45;;;;;;;24.13;55.27;100497.34;1728983;81;21196;-86
2022/06/14 06:00:10;;;;;;;9.78;6.17;;;;;;;24.13;55.15;100501.52;1723053;81;21099;-86
2022/06/14 06:03:06;;;;;;;6.90;6.08;;;;;;;24.13;55.26;100505.11;1731981;81;21043;-86
2022/06/14 06:05:40;;;;;;;8.30;6.30;;;;;;;24.14;55.29;100509.48;1729631;81;21036;-87
2022/06/14 06:08:27;;;;;;;9.93;6.42;;;;;;;24.17;55.26;100510.00;1727437;81;21070;-85
2022/06/14 06:10:56;;;;;;;9.33;5.92;;;;;;;24.18;55.24;100506.88;1734840;81;21118;-85
2022/06/14 06:13:30;;;;;;;10.30;6.92;;;;;;;24.20;55.29;100510.10;1722636;81;21079;-86
2022/06/14 06:16:22;;;;;;;12.47;5.83;;;;;;;24.21;55.25;100517.29;1732695;81;21075;-86
2022/06/14 06:18:56;;;;;;;7.55;5.72;;;;;;;24.22;55.20;100518.92;1739177;81;21051;-86
2022/06/14 06:22:04;;;;;;;8.28;5.78;;;;;;;24.23;55.12;100520.52;1736896;81;21584;-86
2022/06/14 06:24:52;;;;;;;8.78;5.80;;;;;;;24.25;55.10;100526.55;1706193;81;21184;-87
2022/06/14 06:27:21;;;;;;;14.53;5.67;;;;;;;24.26;55.10;100528.18;1732774;81;21053;-86
2022/06/14 06:30:00;;;;;;;8.98;5.72;;;;;;;24.27;54.99;100536.76;1723151;81;21607;-88
2022/06/14 06:32:28;;;;;;;11.67;5.90;;;;;;;24.26;54.86;100532.34;1712699;83;21061;-86
2022/06/14 06:34:55;;;;;;;11.03;5.83;;;;;;;24.27;54.92;100542.32;1713477;82;22201;-87
2022/06/14 06:37:28;;;;;;;13.88;5.58;;;;;;;24.27;55.17;100544.28;1719975;81;21513;-87
2022/06/14 06:40:02;;;;;;;11.68;6.37;;;;;;;24.28;55.17;100548.09;1710160;82;21173;-86
2022/06/14 06:42:44;;;;;;;9.63;6.10;;;;;;;24.30;55.24;100549.14;1716089;81;21097;-86
2022/06/14 06:45:23;;;;;;;8.55;5.83;;;;;;;24.31;55.16;100547.41;1718675;82;21101;-87
2022/06/14 06:48:04;;;;;;;10.82;6.05;;;;;;;24.32;55.24;100548.19;1716406;81;21108;-87
2022/06/14 06:50:36;;;;;;;6.28;5.67;;;;;;;24.33;55.45;100548.43;1709864;82;21215;-86
2022/06/14 06:53:21;;;;;;;8.83;6.28;;;;;;;24.34;55.44;100546.70;1716708;81;21089;-87
2022/06/14 06:56:14;;;;;;;6.42;5.62;;;;;;;24.35;55.41;100544.73;1705072;82;21129;-87
2022/06/14 06:59:01;;;;;;;7.65;5.80;;;;;;;24.36;55.26;100541.59;1724308;81;21076;-87
2022/06/14 07:01:35;;;;;;;6.33;5.70;;;;;;;24.37;55.19;100543.22;1681954;82;21129;-86
2022/06/14 07:04:07;;;;;;;10.15;6.37;;;;;;;24.37;55.30;100540.44;1741670;81;22124;-87
2022/06/14 07:06:41;;;;;;;7.20;6.12;;;;;;;24.37;55.34;100537.66;1724609;80;21053;-87
2022/06/14 07:09:19;;;;;;;9.43;6.37;;;;;;;24.39;55.49;100537.31;1720645;81;21066;-87
2022/06/14 07:11:53;;;;;;;8.43;5.62;;;;;;;24.40;55.64;100544.51;1709605;82;21027;-87
2022/06/14 07:14:42;;;;;;;7.72;5.47;;;;;;;24.42;55.63;100549.13;1725366;82;21140;-88
2022/06/14 07:17:26;;;;;;;12.40;5.72;;;;;;;24.43;55.56;100553.53;1724324;81;21462;-87
2022/06/14 07:20:10;;;;;;;9.58;5.67;;;;;;;24.43;55.34;100567.44;1728048;81;21583;-87
2022/06/14 07:22:44;;;;;;;7.28;5.95;;;;;;;24.43;55.28;100564.08;1706991;82;21065;-87
2022/06/14 07:25:36;;;;;;;9.75;5.90;;;;;;;24.42;55.20;100570.80;1721865;83;21057;-87
2022/06/14 07:28:23;;;;;;;11.00;5.00;;;;;;;24.45;55.12;100575.65;1708382;82;21078;-87
2022/06/14 07:30:56;;;;;;;7.72;5.45;;;;;;;24.44;55.04;100569.84;1716211;82;21126;-87
2022/06/14 07:33:28;;;;;;;9.45;5.70;;;;;;;24.45;55.25;100573.44;1688645;83;21065;-87
2022/06/14 07:36:07;;;;;;;9.80;5.78;;;;;;;24.46;55.38;100575.07;1697069;83;21061;-87
2022/06/14 07:39:00;;;;;;;7.60;5.58;;;;;;;24.46;55.26;100573.10;1699513;82;21041;-87
2022/06/14 07:41:54;;;;;;;7.90;5.65;;;;;;;24.47;55.22;100570.56;1693679;82;21684;-88
2022/06/14 07:44:49;;;;;;;11.75;6.05;;;;;;;24.46;55.21;100573.10;1712686;82;21089;-87
2022/06/14 07:47:24;;;;;;;6.53;5.30;;;;;;;24.46;55.36;100578.67;1731079;82;21084;-87
2022/06/14 07:50:22;;;;;;;9.20;5.62;;;;;;;24.46;55.26;100579.24;1729219;80;21108;-87
2022/06/14 07:53:08;;;;;;;8.85;5.40;;;;;;;24.47;55.23;100581.69;1703619;83;21042;-86
2022/06/14 07:55:54;;;;;;;8.28;5.70;;;;;;;24.47;55.22;100574.73;1689237;83;21524;-86
2022/06/14 07:58:31;;;;;;;10.75;6.12;;;;;;;24.47;55.32;100577.52;1699087;81;21159;-87
2022/06/14 08:01:08;;;;;;;10.45;6.30;;;;;;;24.49;55.42;100575.75;1707966;82;21503;-87
2022/06/14 08:04:14;;;;;;;8.33;5.97;;;;;;;24.49;55.52;100576.56;1712968;82;21045;-87
2022/06/14 08:06:53;;;;;;;10.70;6.08;;;;;;;24.50;55.65;100583.76;1718504;83;21062;-87
2022/06/14 08:09:34;;;;;;;8.30;5.47;;;;;;;24.51;55.55;100581.22;1717424;82;21061;-87
2022/06/14 08:12:04;;;;;;;10.70;6.00;;;;;;;24.51;55.61;100580.40;1703611;82;21818;-87
2022/06/14 08:15:10;;;;;;;7.12;6.08;;;;;;;24.52;55.70;100579.25;1700577;83;20970;-85
2022/06/14 08:18:15;;;;;;;8.40;5.62;;;;;;;24.52;55.63;100581.45;1690956;83;21107;-86
2022/06/14 08:21:10;;;;;;;8.75;6.03;;;;;;;24.52;55.48;100582.84;1690375;83;21499;-86
2022/06/14 08:23:44;;;;;;;9.20;5.83;;;;;;;24.53;55.32;100581.66;1671629;83;21079;-86
2022/06/14 08:26:37;;;;;;;7.15;5.47;;;;;;;24.53;55.37;100588.61;1691299;83;21201;-86
2022/06/14 08:29:27;;;;;;;9.18;5.25;;;;;;;24.55;55.42;100589.66;1723091;81;21062;-87
2022/06/14 08:31:58;;;;;;;10.32;5.92;;;;;;;24.55;55.35;100588.27;1662899;85;21532;-86
2022/06/14 08:34:32;;;;;;;7.42;5.37;;;;;;;24.53;55.29;100592.78;1687773;83;21102;-85
2022/06/14 08:37:26;;;;;;;14.80;5.53;;;;;;;24.54;55.25;100586.64;1688414;84;21050;-86
2022/06/14 08:40:10;;;;;;;11.30;6.12;;;;;;;24.54;55.24;100590.81;1700202;83;21131;-84
2022/06/14 08:42:44;;;;;;;9.00;6.20;;;;;;;24.53;55.34;100594.75;1678731;84;21042;-85
2022/06/14 08:45:41;;;;;;;9.35;6.20;;;;;;;24.54;55.35;100591.63;1697899;84;22046;-86
2022/06/14 08:48:35;;;;;;;8.85;6.08;;;;;;;24.54;55.34;100589.42;1651401;83;21061;-84
2022/06/14 08:51:12;;;;;;;8.78;5.75;;;;;;;24.56;55.26;100591.30;1704579;82;21553;-85
2022/06/14 08:54:19;;;;;;;12.13;5.72;;;;;;;24.57;55.18;100593.70;1671760;83;21094;-85
2022/06/14 08:57:20;;;;;;;6.70;5.87;;;;;;;24.57;55.09;100604.83;1699138;82;21047;-86
2022/06/14 09:00:08;;;;;;;8.25;6.28;;;;;;;24.57;55.06;100599.27;1696456;84;21079;-86
2022/06/14 09:02:46;;;;;;;8.38;5.78;;;;;;;24.56;54.99;100590.72;1699443;83;21154;-86
2022/06/14 09:05:43;;;;;;;7.30;5.50;;;;;;;24.56;54.95;100594.89;1646540;86;21503;-86
2022/06/14 09:08:40;;;;;;;9.65;6.17;;;;;;;24.56;54.92;100596.28;1726346;80;21989;-85
2022/06/14 09:11:36;;;;;;;11.28;6.62;;;;;;;24.57;54.92;100593.70;1697777;84;21023;-86
2022/06/14 09:14:40;;;;;;;8.18;5.95;;;;;;;24.56;54.83;100589.33;1701129;82;21099;-86
2022/06/14 09:17:33;;;;;;;7.72;6.17;;;;;;;24.56;54.71;100591.30;1693852;80;21101;-86
2022/06/14 09:20:24;;;;;;;8.85;6.47;;;;;;;24.55;54.65;100589.66;1719169;82;21107;-85
2022/06/14 09:23:21;;;;;;;9.60;7.78;;;;;;;24.54;54.65;100591.63;1718066;82;21239;-86
2022/06/14 09:26:31;;;;;;;10.58;6.67;;;;;;;24.54;54.59;100594.99;1718483;83;21018;-86
2022/06/14 09:29:26;;;;;;;14.23;6.22;;;;;;;24.54;54.52;100589.42;1698503;83;21615;-86
2022/06/14 09:32:26;;;;;;;9.38;5.97;;;;;;;24.56;54.47;100596.86;1720008;83;21054;-86
2022/06/14 09:35:22;;;;;;;7.72;5.85;;;;;;;24.57;54.37;100596.48;1674742;83;21109;-85
2022/06/14 09:38:12;;;;;;;9.20;5.92;;;;;;;24.58;54.28;100602.86;1708973;83;21583;-86
2022/06/14 09:40:56;;;;;;;9.23;6.10;;;;;;;24.60;54.23;100602.53;1714761;83;21595;-86
2022/06/14 09:43:40;;;;;;;9.90;5.53;;;;;;;24.60;54.20;100602.53;1720338;82;21125;-86
2022/06/14 09:46:21;;;;;;;10.80;9.65;;;;;;;24.60;54.19;100604.73;1717928;81;21105;-86
2022/06/14 09:49:29;;;;;;;10.53;8.50;;;;;;;24.61;54.29;100599.41;1722618;81;21054;-86
2022/06/14 09:52:22;;;;;;;8.58;6.60;;;;;;;24.63;54.29;100600.43;1701656;83;21170;-85
2022/06/14 09:55:18;;;;;;;10.10;6.87;;;;;;;24.64;54.31;100600.67;1718122;82;21117;-86
2022/06/14 09:58:13;;;;;;;11.65;8.28;;;;;;;24.65;54.32;100596.16;1719572;81;21057;-87
2022/06/14 10:00:53;;;;;;;8.13;7.10;;;;;;;24.70;54.34;100588.94;1717091;83;21070;-86
2022/06/14 10:03:55;;;;;;;10.77;7.27;;;;;;;24.72;54.31;100592.19;1720548;83;21089;-85
2022/06/14 10:06:54;;;;;;;8.68;7.03;;;;;;;24.72;54.34;100586.63;1685533;83;21861;-86
2022/06/14 10:09:54;;;;;;;7.65;6.55;;;;;;;24.74;54.28;100580.72;1688844;84;21061;-86
2022/06/14 10:12:50;;;;;;;8.63;6.28;;;;;;;24.78;54.22;100578.86;1714795;82;21066;-85
2022/06/14 10:15:39;;;;;;;11.22;6.12;;;;;;;24.85;54.10;100579.91;1715163;82;21038;-85
2022/06/14 10:18:30;;;;;;;7.53;6.17;;;;;;;24.88;53.94;100576.41;1694979;83;21448;-87
2022/06/14 10:21:23;;;;;;;11.90;6.37;;;;;;;24.88;53.91;100568.64;1655282;85;21212;-86
2022/06/14 10:24:11;;;;;;;9.18;6.05;;;;;;;24.87;53.86;100573.97;1706782;82;21016;-86
2022/06/14 10:29:54;;;;;;;9.60;6.00;;;;;;;24.88;53.78;100568.64;1703800;84;21621;-85
2022/06/14 10:32:34;;;;;;;8.00;5.87;;;;;;;24.87;53.77;100560.05;1639291;84;21105;-87
2022/06/14 10:35:50;;;;;;;9.80;6.08;;;;;;;24.88;53.72;100560.30;1697411;83;21292;-87
2022/06/14 10:38:52;;;;;;;7.10;6.00;;;;;;;24.90;53.67;100559.37;1687797;83;21133;-87
2022/06/14 10:41:42;;;;;;;13.25;5.85;;;;;;;24.90;53.63;100561.58;1639130;85;21119;-86
2022/06/14 10:44:23;;;;;;;6.60;5.78;;;;;;;24.94;53.57;100551.94;1668110;84;21140;-86
2022/06/14 10:47:02;;;;;;;8.35;5.72;;;;;;;24.97;53.48;100549.83;1694705;84;21072;-87
2022/06/14 10:49:43;;;;;;;6.30;5.70;;;;;;;24.99;53.40;100546.91;1693498;83;21200;-85
2022/06/14 10:53:03;;;;;;;11.18;5.70;;;;;;;25.01;53.32;100549.34;1702307;83;21658;-87
2022/06/14 10:55:52;;;;;;;9.68;5.95;;;;;;;25.03;53.26;100548.43;1692046;83;21096;-87
2022/06/14 10:58:51;;;;;;;7.60;5.62;;;;;;;25.05;53.14;100538.31;1693956;82;21713;-86
2022/06/14 11:01:44;;;;;;;7.70;5.30;;;;;;;25.05;53.06;100536.34;1688570;83;21098;-87
2022/06/14 11:04:37;;;;;;;10.82;5.72;;;;;;;25.06;53.03;100526.84;1665194;84;21914;-86
2022/06/14 11:07:34;;;;;;;8.13;5.83;;;;;;;25.08;53.03;100521.70;1666476;85;21101;-83
2022/06/14 11:10:35;;;;;;;7.35;5.20;;;;;;;25.10;53.01;100512.44;1703041;84;21100;-85
2022/06/14 11:13:47;;;;;;;6.83;6.12;;;;;;;25.15;52.84;100508.59;1697530;83;21116;-85
2022/06/14 11:16:45;;;;;;;7.35;5.50;;;;;;;25.14;52.81;100499.42;1706912;81;21077;-85
2022/06/14 11:19:37;;;;;;;5.42;4.90;;;;;;;25.14;52.74;100509.16;1689425;84;21127;-86
2022/06/14 11:22:37;;;;;;;9.40;5.60;;;;;;;25.15;52.67;100510.80;1703195;82;21120;-84
2022/06/14 11:25:20;;;;;;;5.60;5.03;;;;;;;25.16;52.56;100510.21;1720132;82;21136;-87
2022/06/14 11:28:39;;;;;;;8.55;5.65;;;;;;;25.18;52.31;100512.86;1698140;81;21065;-86
2022/06/14 11:31:36;;;;;;;6.15;5.55;;;;;;;25.18;52.22;100504.50;1686041;84;21121;-86
2022/06/14 11:34:40;;;;;;;6.17;5.60;;;;;;;25.19;52.20;100501.14;1697226;83;22030;-86
2022/06/14 11:37:35;;;;;;;6.08;5.47;;;;;;;25.20;52.16;100503.58;1706162;82;21714;-86
2022/06/14 11:40:25;;;;;;;5.60;5.10;;;;;;;25.24;52.18;100500.30;1706633;83;21147;-86
2022/06/14 11:43:32;;;;;;;6.15;5.55;;;;;;;25.29;52.07;100496.45;1700735;83;21113;-85
2022/06/14 11:46:45;;;;;;;5.80;5.30;;;;;;;25.29;51.92;100500.02;1708702;82;21093;-87
2022/06/14 11:49:17;;;;;;;5.25;4.75;;;;;;;25.30;51.98;100494.69;1679751;84;21958;-86
2022/06/14 11:51:57;;;;;;;6.80;5.40;;;;;;;25.32;52.22;100506.30;1696545;83;21136;-86
2022/06/14 11:54:45;;;;;;;6.08;4.92;;;;;;;25.31;52.37;100503.27;1697964;81;21065;-86
2022/06/14 11:57:32;;;;;;;5.62;4.42;;;;;;;25.34;52.39;100508.13;1674114;83;21065;-86
2022/06/14 12:00:37;;;;;;;10.03;4.97;;;;;;;25.33;52.51;100503.70;1682570;84;37375;-86
2022/06/14 12:03:48;;;;;;;7.70;4.65;;;;;;;25.33;52.57;100510.67;1696499;83;21209;-86
2022/06/14 12:06:45;;;;;;;8.13;4.80;;;;;;;25.30;52.66;100514.18;1710723;82;21113;-86
2022/06/14 12:10:03;;;;;;;7.67;4.53;;;;;;;25.31;52.64;100516.38;1680879;84;21133;-86
2022/06/14 12:13:05;;;;;;;6.30;5.30;;;;;;;25.29;52.65;100513.16;1703778;84;21097;-86
2022/06/14 12:15:59;;;;;;;7.58;4.90;;;;;;;25.28;52.68;100515.72;1703918;81;21710;-86
2022/06/14 12:18:22;;;;;;;7.05;4.72;;;;;;;25.27;52.73;100516.88;1647213;84;21827;-86
2022/06/14 12:21:15;;;;;;;7.58;5.15;;;;;;;25.26;52.78;100517.45;1672533;85;21142;-86
2022/06/14 12:23:53;;;;;;;7.03;4.62;;;;;;;25.25;52.79;100508.86;1656170;85;21076;-86
2022/06/14 12:26:34;;;;;;;5.05;4.55;;;;;;;25.24;52.77;100510.05;1670272;84;21633;-86
2022/06/14 12:29:12;;;;;;;5.47;4.62;;;;;;;25.24;52.75;100508.66;1671627;84;21106;-86
2022/06/14 12:32:15;;;;;;;7.20;4.80;;;;;;;25.25;52.74;100514.44;1687710;83;21150;-86
2022/06/14 12:35:02;;;;;;;6.92;4.45;;;;;;;25.24;52.68;100522.58;1654880;84;21326;-86
2022/06/14 12:37:53;;;;;;;10.68;4.78;;;;;;;25.24;52.66;100517.02;1659776;84;21105;-86
2022/06/14 12:40:45;;;;;;;5.70;4.03;;;;;;;25.23;52.67;100508.42;1671213;84;21593;-86
2022/06/14 12:43:25;;;;;;;5.60;4.20;;;;;;;25.20;52.69;100498.02;1683919;84;21528;-85
2022/06/14 12:46:00;;;;;;;5.47;4.10;;;;;;;25.21;52.69;100494.03;1682543;84;22110;-87
2022/06/14 12:48:42;;;;;;;6.30;3.77;;;;;;;25.25;52.69;100501.13;1676705;84;21041;-86